Time;durP1;ratioP1;P1;durP2;ratioP2;P2;SDS_P1;SDS_P2;PMS_P1;PMS_P2;Temp;Humidity;BMP_temperature;BMP_pressure;BME280_temperature;BME280_humidity;BME280_pressure;Samples;Min_cycle;Max_cycle;Signal;HPM_P1;HPM_P2
2022/08/16 00:01:24;;;;;;;26.10;16.00;;;;;;;21.53;63.02;98174.93;105864;1276;97941;-71
2022/08/16 00:04:01;;;;;;;27.20;17.20;;;;;;;21.52;63.28;98174.71;105987;1276;97837;-72
2022/08/16 00:06:33;;;;;;;26.80;16.20;;;;;;;21.49;63.18;98173.21;106061;1276;111544;-71
2022/08/16 00:09:06;;;;;;;28.20;18.20;;;;;;;21.47;63.24;98166.30;105989;1276;98077;-71
2022/08/16 00:11:43;;;;;;;25.70;16.00;;;;;;;21.45;63.49;98166.36;106087;1276;107557;-71
2022/08/16 00:14:25;;;;;;;26.40;16.50;;;;;;;21.42;63.39;98164.94;106069;1276;97879;-71
2022/08/16 00:17:02;;;;;;;24.30;15.30;;;;;;;21.39;63.32;98162.70;105992;1276;97920;-71
2022/08/16 00:19:46;;;;;;;24.60;15.50;;;;;;;21.34;63.51;98163.40;105903;1276;111481;-70
2022/08/16 00:22:23;;;;;;;26.70;15.80;;;;;;;21.30;63.56;98160.84;105970;1276;97814;-71
2022/08/16 00:24:54;;;;;;;24.50;15.60;;;;;;;21.26;63.75;98166.86;105938;1276;107739;-71
2022/08/16 00:27:22;;;;;;;25.10;15.60;;;;;;;21.24;63.69;98167.68;105868;1276;96982;-69
2022/08/16 00:29:50;;;;;;;25.40;17.00;;;;;;;21.23;63.69;98168.98;105934;1276;97965;-72
2022/08/16 00:32:42;;;;;;;27.60;18.10;;;;;;;21.21;63.97;98170.21;105841;1279;111087;-72
2022/08/16 00:35:17;;;;;;;27.10;16.80;;;;;;;21.20;63.79;98166.34;105885;1276;98097;-71
2022/08/16 00:37:55;;;;;;;26.80;16.50;;;;;;;21.17;64.02;98166.84;105863;1276;108437;-71
2022/08/16 00:40:37;;;;;;;25.90;16.20;;;;;;;21.14;63.88;98167.40;105979;1276;97885;-71
2022/08/16 00:43:33;;;;;;;25.40;15.20;;;;;;;21.10;63.94;98162.86;105926;1276;97907;-72
2022/08/16 00:46:27;;;;;;;25.90;16.40;;;;;;;21.06;64.05;98158.72;105944;1276;111360;-69
2022/08/16 00:49:07;;;;;;;23.80;15.50;;;;;;;21.03;64.14;98160.24;105854;1276;97853;-71
2022/08/16 00:51:51;;;;;;;24.70;15.90;;;;;;;21.00;64.11;98158.39;105891;1276;107683;-70
2022/08/16 00:54:28;;;;;;;23.90;15.60;;;;;;;20.96;64.17;98153.82;105943;1275;97906;-72
2022/08/16 00:57:03;;;;;;;25.30;15.30;;;;;;;20.94;64.25;98151.43;105989;1275;96465;-72
2022/08/16 00:59:35;;;;;;;25.00;15.50;;;;;;;20.92;64.25;98152.42;105916;1276;111465;-70
2022/08/16 01:02:19;;;;;;;24.30;15.30;;;;;;;20.90;64.48;98150.88;106022;1276;95198;-71
2022/08/16 01:05:03;;;;;;;27.30;16.00;;;;;;;20.87;64.52;98150.58;106062;1276;107739;-71
2022/08/16 01:07:43;;;;;;;29.90;15.90;;;;;;;20.83;64.48;98147.13;106014;1275;97750;-71
2022/08/16 01:10:29;;;;;;;29.40;16.40;;;;;;;20.81;64.50;98146.30;107102;1274;98013;-71
2022/08/16 01:13:10;;;;;;;24.70;16.70;;;;;;;20.78;64.61;98149.56;106036;1276;111492;-70
2022/08/16 01:15:56;;;;;;;25.40;17.20;;;;;;;20.75;64.54;98145.20;105964;1275;97868;-72
2022/08/16 01:18:33;;;;;;;26.80;16.00;;;;;;;20.72;64.72;98141.45;105847;1276;107823;-70
2022/08/16 01:21:24;;;;;;;24.90;16.20;;;;;;;20.70;64.68;98143.77;106002;1276;97878;-70
2022/08/16 01:24:35;;;;;;;24.80;16.20;;;;;;;20.67;64.79;98137.06;105965;1276;97947;-69
2022/08/16 01:27:47;;;;;;;26.40;16.40;;;;;;;20.62;65.01;98130.80;105867;1277;112492;-71
2022/08/16 01:30:17;;;;;;;27.00;17.20;;;;;;;20.61;65.01;98131.04;105965;1276;97866;-72
2022/08/16 01:32:54;;;;;;;26.80;17.30;;;;;;;20.58;64.97;98134.05;105918;1276;107449;-71
2022/08/16 01:35:47;;;;;;;25.20;16.20;;;;;;;20.57;65.12;98135.55;105891;1277;98018;-73
2022/08/16 01:38:35;;;;;;;24.70;16.20;;;;;;;20.53;65.10;98135.20;105875;1279;97762;-75
2022/08/16 01:41:13;;;;;;;24.10;15.00;;;;;;;20.51;65.13;98136.23;106060;1276;111331;-75
2022/08/16 01:43:54;;;;;;;23.70;15.30;;;;;;;20.48;65.21;98138.91;105939;1276;98393;-73
2022/08/16 01:46:43;;;;;;;24.70;15.20;;;;;;;20.45;65.29;98134.31;105873;1276;107831;-72
2022/08/16 01:49:17;;;;;;;26.00;15.20;;;;;;;20.42;65.24;98132.13;105964;1276;98560;-72
2022/08/16 01:52:02;;;;;;;24.80;15.30;;;;;;;20.40;65.34;98133.73;105962;1276;97966;-70
2022/08/16 01:54:31;;;;;;;25.50;14.20;;;;;;;20.36;65.41;98135.93;105945;1276;111486;-71
2022/08/16 01:57:07;;;;;;;24.50;14.90;;;;;;;20.33;65.33;98132.25;105880;1278;97754;-70
2022/08/16 01:59:40;;;;;;;25.20;15.30;;;;;;;20.31;65.50;98131.48;105985;1276;107768;-70
2022/08/16 02:02:10;;;;;;;24.80;16.20;;;;;;;20.27;65.47;98133.90;105947;1276;97899;-69
2022/08/16 02:04:58;;;;;;;23.90;15.00;;;;;;;20.23;65.58;98130.56;105921;1276;97969;-72
2022/08/16 02:07:27;;;;;;;23.80;15.60;;;;;;;20.20;65.67;98130.49;105911;1276;111324;-73
2022/08/16 02:10:03;;;;;;;26.60;15.80;;;;;;;20.18;65.70;98133.60;106017;1276;97864;-71
2022/08/16 02:12:35;;;;;;;27.10;16.70;;;;;;;20.16;65.75;98132.46;105935;1276;107458;-71
2022/08/16 02:15:25;;;;;;;29.10;17.30;;;;;;;20.13;65.83;98127.09;105865;1276;99484;-70
2022/08/16 02:17:58;;;;;;;27.90;17.40;;;;;;;20.12;65.82;98125.96;105980;1276;95369;-71
2022/08/16 02:20:36;;;;;;;24.90;16.40;;;;;;;20.10;65.96;98127.23;106015;1276;111441;-71
2022/08/16 02:23:14;;;;;;;24.70;16.20;;;;;;;20.08;65.94;98125.81;106040;1276;95539;-72
2022/08/16 02:25:48;;;;;;;25.90;17.90;;;;;;;20.06;65.97;98117.94;105922;1276;107432;-72
2022/08/16 02:28:26;;;;;;;27.00;17.10;;;;;;;20.04;66.06;98116.14;105885;1276;98403;-72
2022/08/16 02:30:58;;;;;;;27.00;17.40;;;;;;;20.02;66.10;98117.95;105883;1276;97916;-71
2022/08/16 02:33:27;;;;;;;28.20;18.40;;;;;;;20.00;66.11;98119.27;105925;1276;111468;-71
2022/08/16 02:36:18;;;;;;;30.10;17.10;;;;;;;19.99;66.22;98124.03;106016;1276;97841;-71
2022/08/16 02:39:09;;;;;;;26.90;18.20;;;;;;;19.96;66.28;98126.30;105889;1276;106016;-71
2022/08/16 02:41:39;;;;;;;28.50;17.00;;;;;;;19.94;66.28;98126.03;106034;1276;97837;-71
2022/08/16 02:44:11;;;;;;;25.60;17.40;;;;;;;19.92;66.27;98130.01;105890;1276;95261;-70
2022/08/16 02:46:44;;;;;;;24.90;16.40;;;;;;;19.90;66.31;98129.23;106041;1276;111430;-71
2022/08/16 02:49:23;;;;;;;25.80;17.10;;;;;;;19.87;66.29;98127.20;106012;1276;97930;-69
2022/08/16 02:52:11;;;;;;;25.10;16.30;;;;;;;19.85;66.34;98132.40;105859;1276;107595;-71
2022/08/16 02:54:55;;;;;;;24.50;15.90;;;;;;;19.80;66.42;98128.65;105898;1276;98386;-71
2022/08/16 02:57:26;;;;;;;26.60;17.20;;;;;;;19.76;66.45;98127.64;105920;1276;96374;-72
2022/08/16 02:59:54;;;;;;;24.90;15.20;;;;;;;19.75;66.49;98126.59;106039;1274;111176;-72
2022/08/16 03:02:23;;;;;;;23.80;15.80;;;;;;;19.72;66.42;98123.87;105956;1276;97896;-72
2022/08/16 03:05:08;;;;;;;25.00;16.80;;;;;;;19.70;66.55;98125.09;105937;1276;107638;-72
2022/08/16 03:07:37;;;;;;;23.30;15.60;;;;;;;19.67;66.58;98128.66;105986;1276;97961;-73
2022/08/16 03:10:11;;;;;;;23.50;16.10;;;;;;;19.64;66.62;98131.71;105838;1276;97879;-72
2022/08/16 03:12:49;;;;;;;26.80;16.50;;;;;;;19.63;66.67;98133.15;105868;1276;111451;-71
2022/08/16 03:15:24;;;;;;;26.40;16.10;;;;;;;19.61;66.71;98134.63;105890;1276;97983;-72
2022/08/16 03:17:57;;;;;;;27.60;17.70;;;;;;;19.58;66.73;98138.38;105904;1276;107657;-73
2022/08/16 03:20:25;;;;;;;24.80;16.70;;;;;;;19.56;66.68;98141.81;105925;1276;98094;-72
2022/08/16 03:23:03;;;;;;;26.50;17.50;;;;;;;19.56;66.84;98148.07;106008;1276;96575;-71
2022/08/16 03:25:36;;;;;;;24.70;16.20;;;;;;;19.53;66.87;98154.15;105964;1278;111484;-73
2022/08/16 03:28:14;;;;;;;24.80;16.60;;;;;;;19.49;66.92;98153.11;105963;1276;95193;-71
2022/08/16 03:30:47;;;;;;;23.30;15.60;;;;;;;19.47;66.96;98151.10;105892;1276;107647;-72
2022/08/16 03:33:18;;;;;;;24.90;16.40;;;;;;;19.44;66.98;98147.33;105969;1276;97784;-71
2022/08/16 03:35:46;;;;;;;23.30;14.80;;;;;;;19.42;67.03;98144.98;105942;1276;97848;-72
2022/08/16 03:38:18;;;;;;;24.90;16.60;;;;;;;19.41;67.02;98142.16;105998;1276;111212;-70
2022/08/16 03:41:08;;;;;;;27.20;16.40;;;;;;;19.38;67.10;98146.77;106021;1276;97740;-71
2022/08/16 03:43:55;;;;;;;24.00;16.00;;;;;;;19.34;67.17;98146.16;105931;1276;107535;-68
2022/08/16 03:46:27;;;;;;;25.50;15.40;;;;;;;19.33;67.19;98144.56;105952;1276;96599;-70
2022/08/16 03:49:16;;;;;;;25.90;16.10;;;;;;;19.32;67.30;98139.83;105962;1276;97882;-72
2022/08/16 03:51:53;;;;;;;26.40;16.30;;;;;;;19.31;67.35;98144.19;102751;1276;4397682;-71
2022/08/16 03:54:21;;;;;;;25.50;15.50;;;;;;;19.31;67.46;98145.73;105971;1276;97887;-71
2022/08/16 03:56:53;;;;;;;24.00;15.80;;;;;;;19.30;67.45;98145.20;106030;1276;106729;-71
2022/08/16 03:59:31;;;;;;;24.90;16.30;;;;;;;19.31;67.46;98144.35;106040;1276;97980;-70
2022/08/16 04:01:59;;;;;;;25.20;15.80;;;;;;;19.32;67.50;98149.25;105977;1276;97858;-71
2022/08/16 04:04:34;;;;;;;25.00;15.80;;;;;;;19.33;67.55;98153.48;105946;1276;111568;-71
2022/08/16 04:07:06;;;;;;;;;;;;;;;19.34;67.53;98151.46;105991;1276;97702;-70
2022/08/16 04:09:37;;;;;;;22.40;14.30;;;;;;;19.31;67.66;98156.33;105884;1276;107743;-70
2022/08/16 04:12:09;;;;;;;25.20;14.90;;;;;;;19.31;67.63;98155.17;105909;1276;97864;-70
2022/08/16 04:15:01;;;;;;;24.70;14.80;;;;;;;19.31;67.77;98156.79;105939;1276;97964;-69
2022/08/16 04:17:38;;;;;;;26.40;17.00;;;;;;;19.32;67.78;98157.29;105823;1279;110734;-69
2022/08/16 04:20:09;;;;;;;24.70;15.80;;;;;;;19.32;67.80;98158.63;105994;1276;97951;-68
2022/08/16 04:22:58;;;;;;;23.10;15.10;;;;;;;19.34;67.95;98163.42;105899;1276;108417;-70
2022/08/16 04:25:30;;;;;;;23.70;14.90;;;;;;;19.36;67.93;98166.13;105900;1276;97951;-67
2022/08/16 04:27:58;;;;;;;23.40;15.50;;;;;;;19.38;67.92;98167.52;105966;1276;97889;-70
2022/08/16 04:30:45;;;;;;;25.40;15.70;;;;;;;19.39;68.06;98168.92;105970;1276;110386;-70
2022/08/16 04:33:15;;;;;;;22.90;14.80;;;;;;;19.41;68.01;98167.70;105978;1276;98029;-70
2022/08/16 04:35:44;;;;;;;24.80;15.90;;;;;;;19.42;68.06;98169.88;105999;1276;109384;-71
2022/08/16 04:38:18;;;;;;;25.50;15.40;;;;;;;19.43;68.02;98174.78;105943;1276;97961;-71
2022/08/16 04:40:48;;;;;;;27.50;16.70;;;;;;;19.45;68.19;98181.04;105953;1277;97886;-70
2022/08/16 04:43:19;;;;;;;25.20;16.10;;;;;;;19.46;68.22;98177.94;105918;1275;111384;-71
2022/08/16 04:45:50;;;;;;;27.00;17.50;;;;;;;19.49;68.24;98179.25;106000;1276;98020;-70
2022/08/16 04:48:27;;;;;;;24.10;16.80;;;;;;;19.52;68.35;98179.41;105973;1277;107820;-68
2022/08/16 04:51:03;;;;;;;25.90;17.30;;;;;;;19.56;68.35;98178.29;106060;1276;98070;-70
2022/08/16 04:53:41;;;;;;;29.10;18.10;;;;;;;19.59;68.39;98174.98;105948;1276;96429;-69
2022/08/16 04:56:09;;;;;;;29.10;17.50;;;;;;;19.59;68.38;98174.16;105934;1276;111446;-69
2022/08/16 04:58:41;;;;;;;27.10;17.50;;;;;;;19.62;68.50;98165.61;106015;1276;97988;-70
2022/08/16 05:01:18;;;;;;;28.30;17.90;;;;;;;19.66;68.56;98162.61;105905;1276;107672;-69
2022/08/16 05:03:48;;;;;;;29.30;18.50;;;;;;;19.70;68.65;98162.61;105944;1276;97955;-69
2022/08/16 05:06:33;;;;;;;30.60;18.00;;;;;;;19.75;68.73;98158.92;105962;1276;97889;-70
2022/08/16 05:09:17;;;;;;;26.70;17.60;;;;;;;19.81;68.85;98157.77;105934;1276;111431;-68
2022/08/16 05:11:49;;;;;;;26.00;17.30;;;;;;;19.87;68.82;98154.72;105969;1276;97898;-67
2022/08/16 05:14:17;;;;;;;26.50;17.10;;;;;;;19.93;68.96;98158.20;105976;1276;108799;-70
2022/08/16 05:17:07;;;;;;;24.20;16.70;;;;;;;20.00;68.98;98161.36;105859;1277;97861;-69
2022/08/16 05:19:38;;;;;;;26.40;16.80;;;;;;;20.06;69.07;98166.36;106049;1276;95291;-69
2022/08/16 05:22:13;;;;;;;24.80;16.50;;;;;;;20.15;69.24;98171.80;106008;1276;110118;-70
2022/08/16 05:24:48;;;;;;;27.00;17.00;;;;;;;20.22;69.24;98173.34;105965;1276;97781;-70
2022/08/16 05:27:25;;;;;;;24.20;15.40;;;;;;;20.30;69.27;98175.30;105981;1276;107409;-70
2022/08/16 05:29:56;;;;;;;25.50;16.00;;;;;;;20.36;69.19;98175.77;106092;1276;95915;-69
2022/08/16 05:32:44;;;;;;;26.40;16.90;;;;;;;20.43;69.17;98173.07;106034;1276;97039;-71
2022/08/16 05:35:17;;;;;;;25.80;16.80;;;;;;;20.47;69.16;98175.59;105958;1276;112028;-70
2022/08/16 05:37:51;;;;;;;25.30;17.00;;;;;;;20.49;69.16;98177.39;105934;1276;97886;-70
2022/08/16 05:40:22;;;;;;;24.80;17.70;;;;;;;20.48;69.18;98176.17;105858;1276;108344;-70
2022/08/16 05:42:56;;;;;;;26.70;18.50;;;;;;;20.48;69.17;98178.09;105966;1276;97977;-69
2022/08/16 05:45:28;;;;;;;26.50;17.50;;;;;;;20.49;69.35;98180.13;106057;1276;96481;-71
2022/08/16 05:47:56;;;;;;;25.70;16.60;;;;;;;20.50;69.32;98178.10;106081;1276;111423;-70
2022/08/16 05:50:30;;;;;;;26.70;16.60;;;;;;;20.53;69.39;98179.91;106024;1276;97772;-70
2022/08/16 05:53:03;;;;;;;23.90;16.40;;;;;;;20.58;69.30;98178.07;105934;1276;108238;-70
2022/08/16 05:55:34;;;;;;;24.00;16.40;;;;;;;20.63;69.49;98179.59;105934;1276;98476;-69
2022/08/16 05:58:10;;;;;;;28.40;17.50;;;;;;;20.68;69.51;98179.21;105892;1277;95298;-71
2022/08/16 06:00:59;;;;;;;28.60;18.20;;;;;;;20.74;69.55;98176.75;106071;1277;112086;-69
2022/08/16 06:03:32;;;;;;;26.50;18.00;;;;;;;20.79;69.47;98179.50;105960;1276;97865;-71
2022/08/16 06:06:01;;;;;;;29.50;17.50;;;;;;;20.84;69.68;98181.23;105988;1276;106093;-70
2022/08/16 06:08:33;;;;;;;26.50;18.40;;;;;;;20.88;69.71;98183.21;106035;1277;97994;-70
2022/08/16 06:11:17;;;;;;;27.90;17.60;;;;;;;20.94;69.74;98186.83;106013;1276;96325;-71
2022/08/16 06:13:46;;;;;;;25.60;17.60;;;;;;;20.98;69.84;98185.09;106058;1276;111289;-70
2022/08/16 06:16:19;;;;;;;29.80;18.10;;;;;;;21.03;69.82;98179.24;106005;1277;97982;-71
2022/08/16 06:18:47;;;;;;;28.30;18.10;;;;;;;21.06;69.68;98179.39;106003;1276;107894;-70
2022/08/16 06:21:19;;;;;;;30.70;18.10;;;;;;;21.11;69.90;98179.16;106055;1276;97959;-71
2022/08/16 06:23:56;;;;;;;26.10;17.10;;;;;;;21.16;69.94;98180.14;106043;1277;97857;-72
2022/08/16 06:26:31;;;;;;;26.00;17.20;;;;;;;21.22;69.74;98179.20;105983;1276;111299;-71
2022/08/16 06:29:05;;;;;;;28.50;17.40;;;;;;;21.28;69.99;98182.21;106114;1276;97867;-71
2022/08/16 06:31:41;;;;;;;34.10;18.10;;;;;;;21.32;69.90;98185.77;106070;1276;107746;-72
2022/08/16 06:34:20;;;;;;;26.40;17.80;;;;;;;21.37;69.81;98190.04;105995;1277;97902;-72
2022/08/16 06:37:10;;;;;;;27.80;17.30;;;;;;;21.40;69.94;98194.28;106048;1276;97921;-70
2022/08/16 06:39:41;;;;;;;32.10;18.40;;;;;;;21.44;69.90;98187.80;106156;1277;111366;-71
2022/08/16 06:42:19;;;;;;;26.00;16.90;;;;;;;21.49;70.18;98187.70;106140;1277;97967;-70
2022/08/16 06:44:47;;;;;;;26.40;17.10;;;;;;;21.54;70.17;98188.80;106120;1276;107734;-71
2022/08/16 06:47:18;;;;;;;25.80;18.20;;;;;;;21.61;70.06;98190.73;106102;1277;98031;-71
2022/08/16 06:49:47;;;;;;;29.50;18.90;;;;;;;21.65;69.97;98187.56;105984;1276;95278;-71
2022/08/16 06:52:22;;;;;;;28.40;17.70;;;;;;;21.69;69.98;98184.31;106035;1276;112008;-71
2022/08/16 06:55:14;;;;;;;27.30;19.30;;;;;;;21.75;70.05;98190.11;106051;1276;97905;-71
2022/08/16 06:57:42;;;;;;;26.90;18.70;;;;;;;21.81;69.99;98191.50;106050;1276;107759;-71
2022/08/16 07:00:14;;;;;;;32.30;20.00;;;;;;;21.86;70.07;98190.83;106012;1276;96399;-72
2022/08/16 07:02:55;;;;;;;26.70;18.50;;;;;;;21.92;70.17;98192.73;106025;1276;97997;-73
2022/08/16 07:05:30;;;;;;;28.40;20.10;;;;;;;21.98;70.22;98188.77;106022;1276;111222;-72
2022/08/16 07:08:11;;;;;;;29.30;19.50;;;;;;;22.06;70.05;98189.77;106008;1276;97951;-71
2022/08/16 07:10:40;;;;;;;28.20;20.20;;;;;;;22.12;70.22;98187.27;105996;1276;107834;-72
2022/08/16 07:13:12;;;;;;;33.70;22.90;;;;;;;22.19;70.23;98188.69;106017;1276;97982;-71
2022/08/16 07:16:13;;;;;;;31.00;20.60;;;;;;;22.27;70.10;98192.27;106059;1276;97976;-71
2022/08/16 07:18:44;;;;;;;28.30;19.90;;;;;;;22.37;70.29;98203.60;105966;1276;111416;-70
2022/08/16 07:21:28;;;;;;;29.00;19.20;;;;;;;22.50;70.23;98201.61;106504;1276;97908;-71
2022/08/16 07:24:16;;;;;;;28.20;18.60;;;;;;;22.67;70.02;98206.80;106051;1276;108398;-70
2022/08/16 07:26:59;;;;;;;33.90;19.90;;;;;;;22.87;70.12;98205.21;106158;1277;98014;-69
2022/08/16 07:29:30;;;;;;;30.70;17.60;;;;;;;23.32;69.89;98201.66;106122;1275;97972;-70
2022/08/16 07:32:06;;;;;;;29.90;19.50;;;;;;;23.49;70.01;98202.83;106041;1276;111778;-70
2022/08/16 07:34:33;;;;;;;27.20;18.70;;;;;;;23.80;69.63;98193.34;105963;1276;97941;-71
2022/08/16 07:37:18;;;;;;;27.80;18.90;;;;;;;24.34;69.64;98192.52;106073;1277;107640;-71
2022/08/16 07:39:54;;;;;;;32.10;18.80;;;;;;;24.59;69.89;98193.94;106116;1277;97876;-71
2022/08/16 07:42:24;;;;;;;27.00;19.30;;;;;;;24.89;69.87;98190.80;106063;1276;95357;-71
2022/08/16 07:45:08;;;;;;;;;;;;;;;25.23;69.44;98185.30;106185;1277;111409;-71
2022/08/16 07:47:37;;;;;;;25.00;17.20;;;;;;;25.59;69.29;98188.02;106159;1277;97718;-71
2022/08/16 07:50:15;;;;;;;24.40;16.60;;;;;;;26.24;68.90;98191.14;106162;1277;108756;-71
2022/08/16 07:53:03;;;;;;;23.80;16.80;;;;;;;27.03;68.57;98190.83;106109;1277;96323;-70
2022/08/16 07:55:33;;;;;;;26.00;17.10;;;;;;;28.07;68.06;98191.90;106165;1277;95298;-71
2022/08/16 07:58:17;;;;;;;24.60;15.80;;;;;;;28.81;67.79;98192.15;106060;1277;110481;-70
2022/08/16 08:01:07;;;;;;;22.20;14.60;;;;;;;29.06;68.28;98191.98;106157;1277;95687;-72
2022/08/16 08:03:42;;;;;;;21.90;16.10;;;;;;;29.35;68.32;98190.65;106017;1277;107989;-71
2022/08/16 08:06:27;;;;;;;22.40;15.80;;;;;;;29.89;67.62;98189.30;106117;1277;99109;-72
2022/08/16 08:09:03;;;;;;;23.10;15.80;;;;;;;30.62;67.06;98197.58;106130;1277;97740;-72
2022/08/16 08:11:36;;;;;;;25.10;15.30;;;;;;;31.18;67.16;98195.48;106142;1277;111460;-72
2022/08/16 08:14:04;;;;;;;23.00;14.70;;;;;;;31.89;66.44;98196.30;106031;1277;97861;-72
2022/08/16 08:16:36;;;;;;;;;;;;;;;32.45;65.87;98194.97;106032;1277;107861;-70
2022/08/16 08:19:12;;;;;;;22.50;13.70;;;;;;;32.50;66.03;98194.08;105953;1277;97906;-73
2022/08/16 08:21:44;;;;;;;22.90;15.60;;;;;;;32.60;66.45;98197.59;106089;1277;97900;-72
2022/08/16 08:24:33;;;;;;;23.20;15.40;;;;;;;32.68;65.96;98193.66;106061;1277;111558;-72
2022/08/16 08:27:08;;;;;;;24.20;14.70;;;;;;;32.81;65.65;98199.31;106125;1278;98372;-73
2022/08/16 08:29:39;;;;;;;23.40;13.70;;;;;;;33.05;65.19;98199.69;106107;1277;107788;-73
2022/08/16 08:32:12;;;;;;;23.20;13.80;;;;;;;33.45;64.97;98201.08;106035;1277;97928;-72
2022/08/16 08:35:01;;;;;;;24.70;14.20;;;;;;;33.91;64.54;98203.75;106089;1276;97831;-72
2022/08/16 08:37:37;;;;;;;22.80;14.50;;;;;;;34.13;64.13;98211.98;106132;1277;111776;-72
2022/08/16 08:40:29;;;;;;;22.40;13.60;;;;;;;34.34;63.67;98215.06;106077;1277;97975;-70
2022/08/16 08:43:02;;;;;;;19.80;13.40;;;;;;;34.31;63.71;98210.27;106001;1277;107780;-73
2022/08/16 08:45:43;;;;;;;21.10;12.80;;;;;;;33.75;63.31;98210.52;105979;1277;95288;-74
2022/08/16 08:48:22;;;;;;;25.50;13.30;;;;;;;33.48;63.46;98207.69;106063;1277;97950;-72
2022/08/16 08:51:08;;;;;;;25.00;14.20;;;;;;;33.38;62.84;98206.13;105979;1277;111786;-73
2022/08/16 08:53:38;;;;;;;23.70;13.50;;;;;;;33.17;62.63;98204.11;106002;1277;96379;-73
2022/08/16 08:56:14;;;;;;;20.50;13.10;;;;;;;32.92;62.32;98202.77;106005;1278;105837;-73
2022/08/16 08:58:53;;;;;;;22.90;14.90;;;;;;;32.75;61.63;98204.48;106117;1275;97876;-69
2022/08/16 09:01:33;;;;;;;24.90;17.10;;;;;;;32.63;61.46;98203.63;106113;1278;97995;-71
2022/08/16 09:04:15;;;;;;;32.20;15.40;;;;;;;32.33;61.27;98209.61;105998;1277;111426;-73
2022/08/16 09:06:44;;;;;;;35.60;16.40;;;;;;;31.96;60.81;98210.67;106014;1277;97882;-73
2022/08/16 09:09:12;;;;;;;22.60;14.90;;;;;;;31.47;60.28;98214.13;105994;1277;106641;-73
2022/08/16 09:11:51;;;;;;;23.60;16.60;;;;;;;31.10;60.48;98212.69;105985;1277;97853;-73
2022/08/16 09:14:38;;;;;;;26.10;17.10;;;;;;;30.71;59.87;98216.20;106006;1276;97915;-73
2022/08/16 09:17:21;;;;;;;23.10;16.20;;;;;;;30.30;59.81;98212.75;106026;1277;111436;-73
2022/08/16 09:20:15;;;;;;;24.90;17.20;;;;;;;29.96;59.63;98214.42;106048;1277;98353;-73
2022/08/16 09:22:53;;;;;;;24.50;16.10;;;;;;;29.59;59.44;98209.11;106031;1278;107219;-71
2022/08/16 09:25:25;;;;;;;26.10;17.30;;;;;;;29.36;59.37;98207.15;106019;1277;97986;-77
2022/08/16 09:28:07;;;;;;;26.10;16.50;;;;;;;29.14;59.19;98212.01;105956;1277;98085;-75
2022/08/16 09:30:41;;;;;;;25.60;17.40;;;;;;;28.96;59.19;98210.79;105975;1277;111361;-68
2022/08/16 09:33:19;;;;;;;24.90;16.50;;;;;;;28.71;58.98;98211.98;106065;1277;98353;-77
2022/08/16 09:35:51;;;;;;;23.20;17.00;;;;;;;28.52;58.90;98210.56;106022;1278;107799;-76
2022/08/16 09:38:26;;;;;;;23.90;16.30;;;;;;;28.44;58.77;98210.52;105877;1277;97973;-80
2022/08/16 09:41:09;;;;;;;27.30;16.70;;;;;;;28.36;58.74;98210.66;106062;1277;96229;-80
2022/08/16 09:43:45;;;;;;;23.90;16.60;;;;;;;28.12;58.63;98218.52;106004;1277;111368;-79
2022/08/16 09:46:28;;;;;;;26.40;16.60;;;;;;;27.86;58.47;98221.31;105855;1278;97890;-79
2022/08/16 09:49:19;;;;;;;25.20;16.60;;;;;;;27.54;58.41;98225.48;105976;1277;107777;-78
2022/08/16 09:51:53;;;;;;;25.00;16.90;;;;;;;27.27;58.50;98226.78;105787;1277;97882;-81
2022/08/16 09:54:27;;;;;;;25.20;16.80;;;;;;;27.10;58.65;98222.77;105970;1277;97966;-72
2022/08/16 09:57:03;;;;;;;26.50;16.50;;;;;;;27.01;58.50;98220.33;105943;1277;111521;-74
2022/08/16 09:59:32;;;;;;;27.20;16.90;;;;;;;26.93;58.52;98221.80;105878;1277;97883;-72
2022/08/16 10:02:06;;;;;;;29.70;17.30;;;;;;;26.83;58.67;98220.83;105853;1277;108297;-69
2022/08/16 10:04:57;;;;;;;26.80;17.40;;;;;;;26.72;58.41;98229.77;105873;1277;95207;-73
2022/08/16 10:07:30;;;;;;;24.30;17.30;;;;;;;26.67;58.36;98228.12;105841;1277;97839;-73
2022/08/16 10:10:14;;;;;;;28.00;18.50;;;;;;;26.65;58.90;98225.30;105896;1277;113103;-71
2022/08/16 10:13:13;;;;;;;28.90;18.70;;;;;;;26.57;58.86;98227.73;105726;1277;97787;-72
2022/08/16 10:15:46;;;;;;;26.40;17.80;;;;;;;26.48;58.57;98230.30;107716;1276;107809;-70
2022/08/16 10:18:22;;;;;;;27.20;17.70;;;;;;;26.39;58.99;98239.14;107472;1277;96014;-72
2022/08/16 10:21:10;;;;;;;25.90;16.10;;;;;;;26.32;59.11;98242.67;107820;1277;95682;-70
2022/08/16 10:23:39;;;;;;;26.40;17.10;;;;;;;26.25;58.78;98246.27;107721;1276;111251;-71
2022/08/16 10:26:11;;;;;;;25.90;16.50;;;;;;;26.15;58.86;98248.63;106531;1276;98009;-71
2022/08/16 10:29:05;;;;;;;24.50;16.10;;;;;;;26.11;59.07;98253.02;105978;1277;108126;-71
2022/08/16 10:31:34;;;;;;;29.00;17.40;;;;;;;26.09;59.10;98254.48;105967;1278;97870;-71
2022/08/16 10:34:17;;;;;;;29.80;17.10;;;;;;;26.06;59.15;98254.91;106066;1276;97973;-70
2022/08/16 10:37:02;;;;;;;26.70;18.80;;;;;;;26.00;59.35;98255.25;106006;1277;111380;-69
2022/08/16 10:39:35;;;;;;;29.40;18.70;;;;;;;25.93;59.25;98251.78;106064;1276;97977;-71
2022/08/16 10:42:11;;;;;;;28.60;18.10;;;;;;;25.84;59.25;98249.56;106003;1276;107836;-72
2022/08/16 10:44:45;;;;;;;27.30;17.80;;;;;;;25.73;59.35;98247.90;106001;1276;98025;-75
2022/08/16 10:47:21;;;;;;;29.30;17.40;;;;;;;25.67;59.54;98245.48;105962;1277;95207;-75
2022/08/16 10:49:50;;;;;;;28.00;17.20;;;;;;;25.65;59.65;98239.77;105878;1276;110318;-75
2022/08/16 10:52:18;;;;;;;26.00;17.60;;;;;;;25.64;59.74;98235.98;105949;1276;97957;-73
2022/08/16 10:54:46;;;;;;;25.60;17.10;;;;;;;25.62;59.72;98234.11;105983;1276;107936;-73
2022/08/16 10:57:34;;;;;;;24.00;16.60;;;;;;;25.61;59.95;98237.31;105941;1276;97954;-75
2022/08/16 11:00:11;;;;;;;27.40;17.50;;;;;;;25.57;59.83;98238.36;105900;1277;97879;-74
2022/08/16 11:02:51;;;;;;;25.40;17.00;;;;;;;25.54;59.93;98241.92;105863;1276;111340;-75
2022/08/16 11:05:34;;;;;;;28.50;18.70;;;;;;;25.52;60.04;98242.41;105924;1276;97967;-73
2022/08/16 11:08:24;;;;;;;25.90;18.40;;;;;;;25.51;60.34;98239.65;106009;1276;108428;-72
2022/08/16 11:11:06;;;;;;;25.20;18.40;;;;;;;25.51;60.41;98236.19;105863;1277;97881;-77
2022/08/16 11:13:44;;;;;;;27.40;18.50;;;;;;;25.52;60.24;98230.76;105906;1277;95811;-77
2022/08/16 11:16:32;;;;;;;27.40;18.10;;;;;;;25.53;60.60;98232.55;105981;1276;111365;-77
2022/08/16 11:19:21;;;;;;;33.80;19.30;;;;;;;25.55;60.50;98234.08;105833;1278;95293;-76
2022/08/16 11:21:49;;;;;;;26.10;19.10;;;;;;;25.59;60.74;98229.55;105953;1276;107699;-81
2022/08/16 11:24:39;;;;;;;28.30;19.40;;;;;;;25.63;60.82;98225.48;105991;1276;97949;-78
2022/08/16 11:27:19;;;;;;;29.50;19.20;;;;;;;25.66;60.88;98217.43;105996;1276;97812;-76
2022/08/16 11:29:54;;;;;;;30.30;20.10;;;;;;;25.69;60.99;98215.34;105946;1276;111522;-77
2022/08/16 11:32:26;;;;;;;28.10;19.90;;;;;;;25.73;61.02;98220.60;106042;1276;97889;-78
2022/08/16 11:35:04;;;;;;;26.80;19.00;;;;;;;25.77;61.27;98223.52;105840;1278;108308;-73
2022/08/16 11:37:46;;;;;;;29.80;20.00;;;;;;;25.79;61.33;98223.36;105984;1276;95287;-76
2022/08/16 11:40:45;;;;;;;31.60;18.90;;;;;;;25.80;61.45;98220.04;105999;1276;97973;-82
2022/08/16 11:43:27;;;;;;;26.40;18.60;;;;;;;25.85;61.63;98218.23;105996;1276;111559;-82
2022/08/16 11:45:57;;;;;;;29.40;17.10;;;;;;;25.85;61.35;98216.79;105921;1276;97930;-82
2022/08/16 11:48:47;;;;;;;27.10;17.80;;;;;;;25.84;61.51;98217.48;106000;1276;107672;-78
2022/08/16 11:51:15;;;;;;;25.20;17.30;;;;;;;25.83;61.58;98212.87;105996;1276;97972;-79
2022/08/16 11:53:43;;;;;;;25.20;16.20;;;;;;;25.83;61.39;98202.48;106051;1276;97954;-79